sensor_id;sensor_type;location;lat;lon;timestamp;P1;durP1;ratioP1;P2;durP2;ratioP2
45694;SDS011;31408;45.468;9.124;2023-03-23T00:02:24;5.65;;;2.90;;
45694;SDS011;31408;45.468;9.124;2023-03-23T00:04:50;3.13;;;2.42;;
45694;SDS011;31408;45.468;9.124;2023-03-23T00:07:16;4.82;;;2.78;;
45694;SDS011;31408;45.468;9.124;2023-03-23T00:09:47;6.60;;;3.50;;
45694;SDS011;31408;45.468;9.124;2023-03-23T00:12:18;4.28;;;2.38;;
45694;SDS011;31408;45.468;9.124;2023-03-23T00:14:45;4.20;;;3.03;;
45694;SDS011;31408;45.468;9.124;2023-03-23T00:17:10;7.03;;;4.35;;
45694;SDS011;31408;45.468;9.124;2023-03-23T00:19:39;6.45;;;3.35;;
45694;SDS011;31408;45.468;9.124;2023-03-23T00:22:14;3.08;;;2.47;;
45694;SDS011;31408;45.468;9.124;2023-03-23T00:24:40;4.00;;;3.05;;
45694;SDS011;31408;45.468;9.124;2023-03-23T00:27:06;5.00;;;2.75;;
45694;SDS011;31408;45.468;9.124;2023-03-23T00:29:34;6.05;;;3.25;;
45694;SDS011;31408;45.468;9.124;2023-03-23T00:32:00;5.90;;;2.75;;
45694;SDS011;31408;45.468;9.124;2023-03-23T00:34:30;3.70;;;2.85;;
45694;SDS011;31408;45.468;9.124;2023-03-23T00:36:59;5.05;;;3.05;;
45694;SDS011;31408;45.468;9.124;2023-03-23T00:39:25;9.07;;;3.53;;
45694;SDS011;31408;45.468;9.124;2023-03-23T00:41:52;6.22;;;2.90;;
45694;SDS011;31408;45.468;9.124;2023-03-23T00:44:19;3.63;;;2.67;;
45694;SDS011;31408;45.468;9.124;2023-03-23T00:46:49;6.22;;;3.30;;
45694;SDS011;31408;45.468;9.124;2023-03-23T00:49:18;7.55;;;3.35;;
45694;SDS011;31408;45.468;9.124;2023-03-23T00:51:45;3.38;;;2.53;;
45694;SDS011;31408;45.468;9.124;2023-03-23T00:54:11;4.60;;;2.78;;
45694;SDS011;31408;45.468;9.124;2023-03-23T00:56:37;6.75;;;3.35;;
45694;SDS011;31408;45.468;9.124;2023-03-23T00:59:04;6.00;;;2.72;;
45694;SDS011;31408;45.468;9.124;2023-03-23T01:01:30;5.88;;;3.08;;
45694;SDS011;31408;45.468;9.124;2023-03-23T01:03:57;4.63;;;2.83;;
45694;SDS011;31408;45.468;9.124;2023-03-23T01:06:28;4.05;;;2.72;;
45694;SDS011;31408;45.468;9.124;2023-03-23T01:08:56;7.07;;;3.78;;
45694;SDS011;31408;45.468;9.124;2023-03-23T01:11:25;3.03;;;2.70;;
45694;SDS011;31408;45.468;9.124;2023-03-23T01:13:51;8.52;;;3.70;;
45694;SDS011;31408;45.468;9.124;2023-03-23T01:16:19;4.88;;;2.97;;
45694;SDS011;31408;45.468;9.124;2023-03-23T01:18:45;5.25;;;2.95;;
45694;SDS011;31408;45.468;9.124;2023-03-23T01:21:12;6.90;;;3.33;;
45694;SDS011;31408;45.468;9.124;2023-03-23T01:23:41;5.20;;;3.08;;
45694;SDS011;31408;45.468;9.124;2023-03-23T01:26:08;10.32;;;3.10;;
45694;SDS011;31408;45.468;9.124;2023-03-23T01:28:37;4.85;;;3.15;;
45694;SDS011;31408;45.468;9.124;2023-03-23T01:31:07;5.18;;;3.40;;
45694;SDS011;31408;45.468;9.124;2023-03-23T01:33:35;6.63;;;3.63;;
45694;SDS011;31408;45.468;9.124;2023-03-23T01:36:04;4.85;;;3.05;;
45694;SDS011;31408;45.468;9.124;2023-03-23T01:38:31;5.82;;;3.65;;
45694;SDS011;31408;45.468;9.124;2023-03-23T01:40:58;5.35;;;3.38;;
45694;SDS011;31408;45.468;9.124;2023-03-23T01:43:23;6.18;;;3.10;;
45694;SDS011;31408;45.468;9.124;2023-03-23T01:45:49;4.55;;;3.33;;
45694;SDS011;31408;45.468;9.124;2023-03-23T01:48:16;3.80;;;2.60;;
45694;SDS011;31408;45.468;9.124;2023-03-23T01:50:54;5.65;;;3.17;;
45694;SDS011;31408;45.468;9.124;2023-03-23T01:53:22;7.60;;;2.97;;
45694;SDS011;31408;45.468;9.124;2023-03-23T01:55:51;7.47;;;2.78;;
45694;SDS011;31408;45.468;9.124;2023-03-23T01:58:21;8.13;;;2.75;;
45694;SDS011;31408;45.468;9.124;2023-03-23T02:00:53;6.53;;;3.63;;
45694;SDS011;31408;45.468;9.124;2023-03-23T02:03:20;8.90;;;3.65;;
45694;SDS011;31408;45.468;9.124;2023-03-23T02:05:48;10.63;;;3.08;;
45694;SDS011;31408;45.468;9.124;2023-03-23T02:08:21;4.43;;;2.88;;
45694;SDS011;31408;45.468;9.124;2023-03-23T02:10:48;4.47;;;3.20;;
45694;SDS011;31408;45.468;9.124;2023-03-23T02:13:14;7.55;;;3.50;;
45694;SDS011;31408;45.468;9.124;2023-03-23T02:18:50;6.07;;;3.88;;
45694;SDS011;31408;45.468;9.124;2023-03-23T02:32:37;6.78;;;3.45;;
45694;SDS011;31408;45.468;9.124;2023-03-23T02:35:52;8.57;;;5.35;;
45694;SDS011;31408;45.468;9.124;2023-03-23T02:38:22;7.13;;;3.75;;
45694;SDS011;31408;45.468;9.124;2023-03-23T02:40:52;9.73;;;3.33;;
45694;SDS011;31408;45.468;9.124;2023-03-23T02:43:20;9.63;;;3.90;;
45694;SDS011;31408;45.468;9.124;2023-03-23T02:45:50;8.10;;;3.42;;
45694;SDS011;31408;45.468;9.124;2023-03-23T02:48:16;8.48;;;3.47;;
45694;SDS011;31408;45.468;9.124;2023-03-23T02:50:45;11.68;;;4.07;;
45694;SDS011;31408;45.468;9.124;2023-03-23T02:53:13;6.38;;;3.63;;
45694;SDS011;31408;45.468;9.124;2023-03-23T02:55:41;10.48;;;3.92;;
45694;SDS011;31408;45.468;9.124;2023-03-23T02:58:13;5.53;;;3.55;;
45694;SDS011;31408;45.468;9.124;2023-03-23T03:00:41;5.97;;;3.67;;
45694;SDS011;31408;45.468;9.124;2023-03-23T03:03:09;3.97;;;3.13;;
45694;SDS011;31408;45.468;9.124;2023-03-23T03:11:04;6.45;;;2.95;;
45694;SDS011;31408;45.468;9.124;2023-03-23T03:18:38;6.72;;;3.65;;
45694;SDS011;31408;45.468;9.124;2023-03-23T03:21:08;6.47;;;3.78;;
45694;SDS011;31408;45.468;9.124;2023-03-23T03:23:42;4.55;;;3.58;;
45694;SDS011;31408;45.468;9.124;2023-03-23T03:26:09;6.50;;;3.43;;
45694;SDS011;31408;45.468;9.124;2023-03-23T03:28:46;6.40;;;3.63;;
45694;SDS011;31408;45.468;9.124;2023-03-23T03:31:19;7.60;;;3.50;;
45694;SDS011;31408;45.468;9.124;2023-03-23T03:33:46;7.65;;;4.07;;
45694;SDS011;31408;45.468;9.124;2023-03-23T03:36:16;5.55;;;3.50;;
45694;SDS011;31408;45.468;9.124;2023-03-23T03:38:44;6.47;;;3.83;;
45694;SDS011;31408;45.468;9.124;2023-03-23T03:41:12;5.45;;;3.67;;
45694;SDS011;31408;45.468;9.124;2023-03-23T03:43:38;5.20;;;4.07;;
45694;SDS011;31408;45.468;9.124;2023-03-23T03:46:03;5.50;;;3.50;;
45694;SDS011;31408;45.468;9.124;2023-03-23T03:48:29;5.40;;;3.85;;
45694;SDS011;31408;45.468;9.124;2023-03-23T03:50:54;6.43;;;3.85;;
45694;SDS011;31408;45.468;9.124;2023-03-23T03:53:24;9.15;;;4.18;;
45694;SDS011;31408;45.468;9.124;2023-03-23T03:55:50;9.43;;;4.45;;
45694;SDS011;31408;45.468;9.124;2023-03-23T03:58:21;5.30;;;4.13;;
45694;SDS011;31408;45.468;9.124;2023-03-23T04:01:13;6.95;;;3.65;;
45694;SDS011;31408;45.468;9.124;2023-03-23T04:03:40;5.15;;;4.00;;
45694;SDS011;31408;45.468;9.124;2023-03-23T04:06:18;9.35;;;4.32;;
45694;SDS011;31408;45.468;9.124;2023-03-23T04:08:44;8.73;;;4.20;;
45694;SDS011;31408;45.468;9.124;2023-03-23T04:11:11;6.43;;;3.60;;
45694;SDS011;31408;45.468;9.124;2023-03-23T04:13:39;9.10;;;3.17;;
45694;SDS011;31408;45.468;9.124;2023-03-23T04:16:19;7.50;;;3.60;;
45694;SDS011;31408;45.468;9.124;2023-03-23T04:18:46;7.03;;;3.97;;
45694;SDS011;31408;45.468;9.124;2023-03-23T04:21:14;5.25;;;3.80;;
45694;SDS011;31408;45.468;9.124;2023-03-23T04:23:43;4.40;;;2.97;;
45694;SDS011;31408;45.468;9.124;2023-03-23T04:26:08;9.70;;;3.80;;
45694;SDS011;31408;45.468;9.124;2023-03-23T04:28:40;9.95;;;4.63;;
45694;SDS011;31408;45.468;9.124;2023-03-23T04:31:29;7.88;;;4.78;;
45694;SDS011;31408;45.468;9.124;2023-03-23T04:34:12;5.93;;;3.40;;
45694;SDS011;31408;45.468;9.124;2023-03-23T04:36:45;5.43;;;3.88;;
45694;SDS011;31408;45.468;9.124;2023-03-23T04:39:15;9.73;;;3.65;;
45694;SDS011;31408;45.468;9.124;2023-03-23T04:41:41;6.43;;;4.55;;
45694;SDS011;31408;45.468;9.124;2023-03-23T04:44:42;9.75;;;3.92;;
45694;SDS011;31408;45.468;9.124;2023-03-23T04:47:12;8.45;;;4.10;;
45694;SDS011;31408;45.468;9.124;2023-03-23T04:49:47;5.35;;;3.58;;
45694;SDS011;31408;45.468;9.124;2023-03-23T04:52:27;8.77;;;4.20;;
45694;SDS011;31408;45.468;9.124;2023-03-23T04:54:56;9.65;;;3.63;;
45694;SDS011;31408;45.468;9.124;2023-03-23T04:57:22;7.05;;;4.13;;
45694;SDS011;31408;45.468;9.124;2023-03-23T05:00:08;7.85;;;4.28;;
45694;SDS011;31408;45.468;9.124;2023-03-23T05:02:39;6.97;;;3.67;;
45694;SDS011;31408;45.468;9.124;2023-03-23T05:05:06;8.25;;;3.85;;
45694;SDS011;31408;45.468;9.124;2023-03-23T05:07:32;6.10;;;3.88;;
45694;SDS011;31408;45.468;9.124;2023-03-23T05:09:58;10.23;;;4.63;;
45694;SDS011;31408;45.468;9.124;2023-03-23T05:12:26;7.50;;;3.45;;
45694;SDS011;31408;45.468;9.124;2023-03-23T05:14:56;10.65;;;4.50;;
45694;SDS011;31408;45.468;9.124;2023-03-23T05:17:25;10.23;;;4.78;;
45694;SDS011;31408;45.468;9.124;2023-03-23T05:19:53;7.03;;;4.72;;
45694;SDS011;31408;45.468;9.124;2023-03-23T05:22:35;6.68;;;4.15;;
45694;SDS011;31408;45.468;9.124;2023-03-23T05:25:03;6.57;;;4.10;;
45694;SDS011;31408;45.468;9.124;2023-03-23T05:27:35;9.48;;;4.75;;
45694;SDS011;31408;45.468;9.124;2023-03-23T05:30:10;12.38;;;4.55;;
45694;SDS011;31408;45.468;9.124;2023-03-23T05:32:38;7.28;;;4.13;;
45694;SDS011;31408;45.468;9.124;2023-03-23T05:35:20;5.93;;;4.13;;
45694;SDS011;31408;45.468;9.124;2023-03-23T05:37:48;11.07;;;5.72;;
45694;SDS011;31408;45.468;9.124;2023-03-23T05:40:14;8.77;;;4.55;;
45694;SDS011;31408;45.468;9.124;2023-03-23T05:42:44;8.95;;;4.53;;
45694;SDS011;31408;45.468;9.124;2023-03-23T05:45:17;6.32;;;3.92;;
45694;SDS011;31408;45.468;9.124;2023-03-23T05:47:44;8.55;;;4.18;;
45694;SDS011;31408;45.468;9.124;2023-03-23T05:50:15;10.02;;;5.50;;
45694;SDS011;31408;45.468;9.124;2023-03-23T05:52:42;7.50;;;4.63;;
45694;SDS011;31408;45.468;9.124;2023-03-23T05:55:10;6.85;;;4.20;;
45694;SDS011;31408;45.468;9.124;2023-03-23T05:57:38;7.05;;;4.43;;
45694;SDS011;31408;45.468;9.124;2023-03-23T06:00:07;10.00;;;4.20;;
45694;SDS011;31408;45.468;9.124;2023-03-23T06:02:42;7.07;;;3.85;;
45694;SDS011;31408;45.468;9.124;2023-03-23T06:05:11;9.95;;;5.28;;
45694;SDS011;31408;45.468;9.124;2023-03-23T06:07:39;25.98;;;6.55;;
45694;SDS011;31408;45.468;9.124;2023-03-23T06:10:05;9.18;;;4.82;;
45694;SDS011;31408;45.468;9.124;2023-03-23T06:12:41;10.77;;;3.60;;
45694;SDS011;31408;45.468;9.124;2023-03-23T06:15:27;9.23;;;4.65;;
45694;SDS011;31408;45.468;9.124;2023-03-23T06:17:59;12.80;;;4.35;;
45694;SDS011;31408;45.468;9.124;2023-03-23T06:20:32;7.50;;;3.90;;
45694;SDS011;31408;45.468;9.124;2023-03-23T06:23:03;5.38;;;3.60;;
45694;SDS011;31408;45.468;9.124;2023-03-23T06:25:31;9.95;;;4.53;;
45694;SDS011;31408;45.468;9.124;2023-03-23T06:27:57;6.82;;;4.05;;
45694;SDS011;31408;45.468;9.124;2023-03-23T06:30:23;6.65;;;3.80;;
45694;SDS011;31408;45.468;9.124;2023-03-23T06:32:49;7.85;;;3.63;;
45694;SDS011;31408;45.468;9.124;2023-03-23T06:35:21;7.60;;;4.32;;
45694;SDS011;31408;45.468;9.124;2023-03-23T06:38:11;8.35;;;4.45;;
45694;SDS011;31408;45.468;9.124;2023-03-23T06:40:45;10.15;;;5.05;;
45694;SDS011;31408;45.468;9.124;2023-03-23T06:43:12;10.48;;;4.70;;
45694;SDS011;31408;45.468;9.124;2023-03-23T06:45:47;7.93;;;3.65;;
45694;SDS011;31408;45.468;9.124;2023-03-23T06:48:36;7.40;;;3.80;;
45694;SDS011;31408;45.468;9.124;2023-03-23T06:51:03;6.32;;;3.45;;
45694;SDS011;31408;45.468;9.124;2023-03-23T06:53:30;6.03;;;3.63;;
45694;SDS011;31408;45.468;9.124;2023-03-23T06:55:57;6.97;;;4.00;;
45694;SDS011;31408;45.468;9.124;2023-03-23T06:58:22;12.60;;;4.30;;
45694;SDS011;31408;45.468;9.124;2023-03-23T07:00:53;4.63;;;3.53;;
45694;SDS011;31408;45.468;9.124;2023-03-23T07:03:22;3.40;;;3.08;;
45694;SDS011;31408;45.468;9.124;2023-03-23T07:05:48;8.30;;;4.43;;
45694;SDS011;31408;45.468;9.124;2023-03-23T07:08:15;7.32;;;3.65;;
45694;SDS011;31408;45.468;9.124;2023-03-23T07:10:47;6.28;;;3.45;;
45694;SDS011;31408;45.468;9.124;2023-03-23T07:13:13;6.25;;;3.58;;
45694;SDS011;31408;45.468;9.124;2023-03-23T07:15:51;4.95;;;3.25;;
45694;SDS011;31408;45.468;9.124;2023-03-23T07:18:17;8.05;;;3.45;;
45694;SDS011;31408;45.468;9.124;2023-03-23T07:20:52;6.45;;;4.13;;
45694;SDS011;31408;45.468;9.124;2023-03-23T07:23:20;8.32;;;4.55;;
45694;SDS011;31408;45.468;9.124;2023-03-23T07:26:01;6.43;;;3.72;;
45694;SDS011;31408;45.468;9.124;2023-03-23T07:28:36;6.75;;;3.13;;
45694;SDS011;31408;45.468;9.124;2023-03-23T07:31:15;8.63;;;3.53;;
45694;SDS011;31408;45.468;9.124;2023-03-23T07:33:41;6.03;;;3.25;;
45694;SDS011;31408;45.468;9.124;2023-03-23T07:36:07;11.07;;;3.80;;
45694;SDS011;31408;45.468;9.124;2023-03-23T07:38:34;6.53;;;3.58;;
45694;SDS011;31408;45.468;9.124;2023-03-23T07:41:01;4.78;;;3.60;;
45694;SDS011;31408;45.468;9.124;2023-03-23T07:43:27;5.32;;;3.22;;
45694;SDS011;31408;45.468;9.124;2023-03-23T07:46:15;5.15;;;3.40;;
45694;SDS011;31408;45.468;9.124;2023-03-23T07:49:04;10.45;;;4.25;;
45694;SDS011;31408;45.468;9.124;2023-03-23T07:51:36;9.88;;;3.42;;
45694;SDS011;31408;45.468;9.124;2023-03-23T07:54:06;5.53;;;3.72;;
45694;SDS011;31408;45.468;9.124;2023-03-23T07:56:53;6.15;;;3.85;;
45694;SDS011;31408;45.468;9.124;2023-03-23T07:59:28;6.43;;;3.80;;
45694;SDS011;31408;45.468;9.124;2023-03-23T08:01:56;9.15;;;5.22;;
45694;SDS011;31408;45.468;9.124;2023-03-23T08:04:46;11.02;;;4.18;;
45694;SDS011;31408;45.468;9.124;2023-03-23T08:07:31;10.63;;;4.47;;
45694;SDS011;31408;45.468;9.124;2023-03-23T08:10:04;7.75;;;4.28;;
45694;SDS011;31408;45.468;9.124;2023-03-23T08:12:30;8.57;;;4.75;;
45694;SDS011;31408;45.468;9.124;2023-03-23T08:15:19;8.80;;;3.80;;
45694;SDS011;31408;45.468;9.124;2023-03-23T08:17:49;8.75;;;3.88;;
45694;SDS011;31408;45.468;9.124;2023-03-23T08:20:34;9.93;;;4.55;;
45694;SDS011;31408;45.468;9.124;2023-03-23T08:23:14;8.85;;;4.22;;
45694;SDS011;31408;45.468;9.124;2023-03-23T08:26:01;7.20;;;4.75;;
45694;SDS011;31408;45.468;9.124;2023-03-23T08:28:48;9.93;;;4.30;;
45694;SDS011;31408;45.468;9.124;2023-03-23T08:31:37;11.38;;;5.43;;
45694;SDS011;31408;45.468;9.124;2023-03-23T08:34:11;7.45;;;4.25;;
45694;SDS011;31408;45.468;9.124;2023-03-23T08:36:57;6.25;;;3.50;;
45694;SDS011;31408;45.468;9.124;2023-03-23T08:39:41;8.48;;;4.00;;
45694;SDS011;31408;45.468;9.124;2023-03-23T08:42:34;7.88;;;3.80;;
45694;SDS011;31408;45.468;9.124;2023-03-23T08:45:28;7.55;;;3.85;;
45694;SDS011;31408;45.468;9.124;2023-03-23T08:47:59;11.20;;;3.63;;
45694;SDS011;31408;45.468;9.124;2023-03-23T08:50:34;11.68;;;5.38;;
45694;SDS011;31408;45.468;9.124;2023-03-23T08:53:00;9.00;;;3.90;;
45694;SDS011;31408;45.468;9.124;2023-03-23T08:55:42;7.97;;;5.03;;
45694;SDS011;31408;45.468;9.124;2023-03-23T08:58:21;9.98;;;5.55;;
45694;SDS011;31408;45.468;9.124;2023-03-23T09:00:47;7.85;;;4.47;;
45694;SDS011;31408;45.468;9.124;2023-03-23T09:03:32;7.93;;;4.18;;
45694;SDS011;31408;45.468;9.124;2023-03-23T09:06:17;9.32;;;4.25;;
45694;SDS011;31408;45.468;9.124;2023-03-23T09:08:44;8.40;;;4.45;;
45694;SDS011;31408;45.468;9.124;2023-03-23T09:11:10;8.48;;;4.65;;
45694;SDS011;31408;45.468;9.124;2023-03-23T09:13:37;8.07;;;3.97;;
45694;SDS011;31408;45.468;9.124;2023-03-23T09:16:03;6.70;;;4.00;;
45694;SDS011;31408;45.468;9.124;2023-03-23T09:18:30;6.88;;;4.10;;
45694;SDS011;31408;45.468;9.124;2023-03-23T09:20:57;6.25;;;4.15;;
45694;SDS011;31408;45.468;9.124;2023-03-23T09:23:24;8.05;;;4.57;;
45694;SDS011;31408;45.468;9.124;2023-03-23T09:25:50;9.75;;;4.07;;
45694;SDS011;31408;45.468;9.124;2023-03-23T09:28:16;9.43;;;3.58;;
45694;SDS011;31408;45.468;9.124;2023-03-23T09:30:41;9.20;;;5.22;;
45694;SDS011;31408;45.468;9.124;2023-03-23T09:33:09;5.70;;;3.88;;
45694;SDS011;31408;45.468;9.124;2023-03-23T09:35:35;7.88;;;3.85;;
45694;SDS011;31408;45.468;9.124;2023-03-23T09:38:02;8.02;;;4.50;;
45694;SDS011;31408;45.468;9.124;2023-03-23T09:43:29;4.13;;;3.25;;
45694;SDS011;31408;45.468;9.124;2023-03-23T09:49:32;4.85;;;3.22;;
45694;SDS011;31408;45.468;9.124;2023-03-23T09:52:19;6.95;;;3.83;;
45694;SDS011;31408;45.468;9.124;2023-03-23T09:54:49;9.35;;;3.75;;
45694;SDS011;31408;45.468;9.124;2023-03-23T09:57:27;10.60;;;4.70;;
45694;SDS011;31408;45.468;9.124;2023-03-23T09:59:59;9.45;;;4.28;;
45694;SDS011;31408;45.468;9.124;2023-03-23T10:05:38;9.55;;;4.38;;
45694;SDS011;31408;45.468;9.124;2023-03-23T10:08:12;8.30;;;3.83;;
45694;SDS011;31408;45.468;9.124;2023-03-23T10:10:49;8.90;;;4.63;;
45694;SDS011;31408;45.468;9.124;2023-03-23T10:16:25;8.40;;;5.07;;
45694;SDS011;31408;45.468;9.124;2023-03-23T10:18:57;13.60;;;5.20;;
45694;SDS011;31408;45.468;9.124;2023-03-23T10:21:27;7.47;;;4.38;;
45694;SDS011;31408;45.468;9.124;2023-03-23T10:24:02;8.65;;;4.45;;
45694;SDS011;31408;45.468;9.124;2023-03-23T10:26:35;11.40;;;4.75;;
45694;SDS011;31408;45.468;9.124;2023-03-23T10:31:32;12.00;;;5.00;;
45694;SDS011;31408;45.468;9.124;2023-03-23T10:34:07;10.52;;;4.20;;
45694;SDS011;31408;45.468;9.124;2023-03-23T10:39:23;7.03;;;3.85;;
45694;SDS011;31408;45.468;9.124;2023-03-23T10:41:53;7.65;;;3.95;;
45694;SDS011;31408;45.468;9.124;2023-03-23T10:44:19;6.40;;;4.10;;
45694;SDS011;31408;45.468;9.124;2023-03-23T10:47:06;5.90;;;4.47;;
45694;SDS011;31408;45.468;9.124;2023-03-23T11:00:05;7.03;;;4.28;;
45694;SDS011;31408;45.468;9.124;2023-03-23T11:05:49;11.25;;;5.07;;
45694;SDS011;31408;45.468;9.124;2023-03-23T11:08:19;10.02;;;4.97;;
45694;SDS011;31408;45.468;9.124;2023-03-23T11:10:50;13.55;;;4.88;;
45694;SDS011;31408;45.468;9.124;2023-03-23T11:13:20;10.43;;;4.78;;
45694;SDS011;31408;45.468;9.124;2023-03-23T11:15:48;12.18;;;4.45;;
45694;SDS011;31408;45.468;9.124;2023-03-23T11:18:21;11.43;;;5.38;;
45694;SDS011;31408;45.468;9.124;2023-03-23T11:20:54;14.43;;;6.13;;
45694;SDS011;31408;45.468;9.124;2023-03-23T11:23:27;12.00;;;5.87;;
45694;SDS011;31408;45.468;9.124;2023-03-23T11:28:43;12.13;;;6.82;;
45694;SDS011;31408;45.468;9.124;2023-03-23T11:31:10;11.13;;;6.05;;
45694;SDS011;31408;45.468;9.124;2023-03-23T11:33:45;9.77;;;5.88;;
45694;SDS011;31408;45.468;9.124;2023-03-23T11:36:20;17.30;;;5.47;;
45694;SDS011;31408;45.468;9.124;2023-03-23T11:38:51;10.88;;;5.32;;
45694;SDS011;31408;45.468;9.124;2023-03-23T11:41:21;12.65;;;6.03;;
45694;SDS011;31408;45.468;9.124;2023-03-23T11:43:47;11.68;;;6.47;;
45694;SDS011;31408;45.468;9.124;2023-03-23T11:46:20;12.70;;;6.25;;
45694;SDS011;31408;45.468;9.124;2023-03-23T11:48:57;11.23;;;5.90;;
45694;SDS011;31408;45.468;9.124;2023-03-23T11:56:49;12.70;;;6.35;;
45694;SDS011;31408;45.468;9.124;2023-03-23T11:59:15;12.50;;;7.00;;
45694;SDS011;31408;45.468;9.124;2023-03-23T12:09:39;13.77;;;6.88;;
45694;SDS011;31408;45.468;9.124;2023-03-23T12:15:22;18.17;;;6.97;;
45694;SDS011;31408;45.468;9.124;2023-03-23T12:17:46;12.95;;;6.57;;
45694;SDS011;31408;45.468;9.124;2023-03-23T12:20:20;13.10;;;7.65;;
45694;SDS011;31408;45.468;9.124;2023-03-23T12:22:51;12.90;;;7.40;;
45694;SDS011;31408;45.468;9.124;2023-03-23T12:31:12;11.20;;;6.05;;
45694;SDS011;31408;45.468;9.124;2023-03-23T12:33:59;14.57;;;6.40;;
45694;SDS011;31408;45.468;9.124;2023-03-23T12:36:44;10.77;;;6.55;;
45694;SDS011;31408;45.468;9.124;2023-03-23T12:42:21;13.82;;;5.35;;
45694;SDS011;31408;45.468;9.124;2023-03-23T12:52:58;7.82;;;5.32;;
45694;SDS011;31408;45.468;9.124;2023-03-23T12:55:36;10.52;;;5.10;;
45694;SDS011;31408;45.468;9.124;2023-03-23T12:58:11;9.77;;;6.07;;
45694;SDS011;31408;45.468;9.124;2023-03-23T13:00:59;12.02;;;5.38;;
45694;SDS011;31408;45.468;9.124;2023-03-23T13:06:44;20.55;;;5.35;;
45694;SDS011;31408;45.468;9.124;2023-03-23T13:12:05;10.00;;;5.28;;
45694;SDS011;31408;45.468;9.124;2023-03-23T13:20:31;12.90;;;4.95;;
45694;SDS011;31408;45.468;9.124;2023-03-23T13:23:17;14.15;;;5.53;;
45694;SDS011;31408;45.468;9.124;2023-03-23T13:26:08;14.80;;;6.38;;
45694;SDS011;31408;45.468;9.124;2023-03-23T13:31:39;10.07;;;5.32;;
45694;SDS011;31408;45.468;9.124;2023-03-23T13:34:12;11.50;;;5.55;;
45694;SDS011;31408;45.468;9.124;2023-03-23T13:36:51;8.07;;;5.50;;
45694;SDS011;31408;45.468;9.124;2023-03-23T13:39:20;13.75;;;5.20;;
45694;SDS011;31408;45.468;9.124;2023-03-23T13:49:47;12.57;;;5.57;;
45694;SDS011;31408;45.468;9.124;2023-03-23T13:52:18;11.63;;;5.80;;
45694;SDS011;31408;45.468;9.124;2023-03-23T13:54:48;13.20;;;5.57;;
45694;SDS011;31408;45.468;9.124;2023-03-23T13:57:24;9.88;;;5.25;;
45694;SDS011;31408;45.468;9.124;2023-03-23T14:00:12;12.13;;;5.00;;
45694;SDS011;31408;45.468;9.124;2023-03-23T14:02:48;9.65;;;5.00;;
45694;SDS011;31408;45.468;9.124;2023-03-23T14:07:51;13.18;;;5.93;;
45694;SDS011;31408;45.468;9.124;2023-03-23T14:10:18;9.38;;;4.65;;
45694;SDS011;31408;45.468;9.124;2023-03-23T14:12:44;9.27;;;5.07;;
45694;SDS011;31408;45.468;9.124;2023-03-23T14:15:14;7.63;;;4.68;;
45694;SDS011;31408;45.468;9.124;2023-03-23T14:17:41;13.10;;;6.45;;
45694;SDS011;31408;45.468;9.124;2023-03-23T14:20:17;14.13;;;5.82;;
45694;SDS011;31408;45.468;9.124;2023-03-23T14:22:47;13.40;;;5.80;;
45694;SDS011;31408;45.468;9.124;2023-03-23T14:25:18;10.40;;;5.07;;
45694;SDS011;31408;45.468;9.124;2023-03-23T14:27:46;10.52;;;4.72;;
45694;SDS011;31408;45.468;9.124;2023-03-23T14:30:16;10.43;;;5.35;;
45694;SDS011;31408;45.468;9.124;2023-03-23T14:32:43;10.43;;;4.68;;
45694;SDS011;31408;45.468;9.124;2023-03-23T14:37:55;12.70;;;4.75;;
45694;SDS011;31408;45.468;9.124;2023-03-23T14:40:21;7.63;;;3.95;;
45694;SDS011;31408;45.468;9.124;2023-03-23T14:42:46;11.25;;;5.00;;
45694;SDS011;31408;45.468;9.124;2023-03-23T14:45:14;9.95;;;4.30;;
45694;SDS011;31408;45.468;9.124;2023-03-23T14:52:48;7.45;;;4.15;;
45694;SDS011;31408;45.468;9.124;2023-03-23T14:55:18;10.25;;;4.28;;
45694;SDS011;31408;45.468;9.124;2023-03-23T14:57:46;10.93;;;5.13;;
45694;SDS011;31408;45.468;9.124;2023-03-23T15:00:17;6.65;;;4.13;;
45694;SDS011;31408;45.468;9.124;2023-03-23T15:02:47;13.43;;;5.18;;
45694;SDS011;31408;45.468;9.124;2023-03-23T15:05:17;10.73;;;5.05;;
45694;SDS011;31408;45.468;9.124;2023-03-23T15:07:45;8.23;;;4.35;;
45694;SDS011;31408;45.468;9.124;2023-03-23T15:10:16;10.23;;;4.50;;
45694;SDS011;31408;45.468;9.124;2023-03-23T15:12:44;12.73;;;4.15;;
45694;SDS011;31408;45.468;9.124;2023-03-23T15:15:18;11.55;;;5.20;;
45694;SDS011;31408;45.468;9.124;2023-03-23T15:17:46;8.15;;;4.32;;
45694;SDS011;31408;45.468;9.124;2023-03-23T15:20:20;7.93;;;4.38;;
45694;SDS011;31408;45.468;9.124;2023-03-23T15:22:46;8.07;;;3.88;;
45694;SDS011;31408;45.468;9.124;2023-03-23T15:25:24;7.78;;;4.13;;
45694;SDS011;31408;45.468;9.124;2023-03-23T15:30:31;11.43;;;4.25;;
45694;SDS011;31408;45.468;9.124;2023-03-23T15:33:08;9.57;;;4.78;;
45694;SDS011;31408;45.468;9.124;2023-03-23T15:35:36;15.57;;;5.85;;
45694;SDS011;31408;45.468;9.124;2023-03-23T15:38:05;11.95;;;5.20;;
45694;SDS011;31408;45.468;9.124;2023-03-23T15:40:33;9.23;;;4.82;;
45694;SDS011;31408;45.468;9.124;2023-03-23T15:43:08;7.53;;;4.80;;
45694;SDS011;31408;45.468;9.124;2023-03-23T15:45:59;12.40;;;5.00;;
45694;SDS011;31408;45.468;9.124;2023-03-23T15:48:44;7.55;;;4.53;;
45694;SDS011;31408;45.468;9.124;2023-03-23T15:51:23;10.77;;;4.80;;
45694;SDS011;31408;45.468;9.124;2023-03-23T15:53:51;11.68;;;5.22;;
45694;SDS011;31408;45.468;9.124;2023-03-23T15:56:17;10.25;;;4.57;;
45694;SDS011;31408;45.468;9.124;2023-03-23T15:58:43;9.95;;;4.55;;
45694;SDS011;31408;45.468;9.124;2023-03-23T16:01:13;5.80;;;4.07;;
45694;SDS011;31408;45.468;9.124;2023-03-23T16:06:23;7.68;;;4.70;;
45694;SDS011;31408;45.468;9.124;2023-03-23T16:08:51;10.38;;;4.90;;
45694;SDS011;31408;45.468;9.124;2023-03-23T16:11:17;9.15;;;5.30;;
45694;SDS011;31408;45.468;9.124;2023-03-23T16:13:43;19.80;;;5.15;;
45694;SDS011;31408;45.468;9.124;2023-03-23T16:16:54;7.50;;;5.25;;
45694;SDS011;31408;45.468;9.124;2023-03-23T16:19:05;8.68;;;4.47;;
45694;SDS011;31408;45.468;9.124;2023-03-23T16:21:31;11.88;;;5.78;;
45694;SDS011;31408;45.468;9.124;2023-03-23T16:23:57;11.18;;;4.18;;
45694;SDS011;31408;45.468;9.124;2023-03-23T16:26:23;9.07;;;3.88;;
45694;SDS011;31408;45.468;9.124;2023-03-23T16:28:49;9.80;;;5.03;;
45694;SDS011;31408;45.468;9.124;2023-03-23T16:31:14;11.02;;;4.82;;
45694;SDS011;31408;45.468;9.124;2023-03-23T16:33:40;8.65;;;4.28;;
45694;SDS011;31408;45.468;9.124;2023-03-23T16:36:05;11.60;;;5.10;;
45694;SDS011;31408;45.468;9.124;2023-03-23T16:38:31;10.02;;;5.18;;
45694;SDS011;31408;45.468;9.124;2023-03-23T16:40:56;12.57;;;4.45;;
45694;SDS011;31408;45.468;9.124;2023-03-23T16:43:22;7.43;;;3.78;;
45694;SDS011;31408;45.468;9.124;2023-03-23T16:45:47;7.03;;;4.43;;
45694;SDS011;31408;45.468;9.124;2023-03-23T16:48:14;6.30;;;4.07;;
45694;SDS011;31408;45.468;9.124;2023-03-23T16:50:40;12.02;;;4.82;;
45694;SDS011;31408;45.468;9.124;2023-03-23T16:53:07;8.30;;;4.28;;
45694;SDS011;31408;45.468;9.124;2023-03-23T16:55:33;8.13;;;4.05;;
45694;SDS011;31408;45.468;9.124;2023-03-23T16:57:59;12.25;;;4.20;;
45694;SDS011;31408;45.468;9.124;2023-03-23T17:00:25;7.05;;;3.58;;
45694;SDS011;31408;45.468;9.124;2023-03-23T17:02:52;5.72;;;3.47;;
45694;SDS011;31408;45.468;9.124;2023-03-23T17:05:20;7.38;;;3.47;;
45694;SDS011;31408;45.468;9.124;2023-03-23T17:07:47;7.10;;;3.83;;
45694;SDS011;31408;45.468;9.124;2023-03-23T17:10:13;5.75;;;3.20;;
45694;SDS011;31408;45.468;9.124;2023-03-23T17:12:39;5.63;;;2.85;;
45694;SDS011;31408;45.468;9.124;2023-03-23T17:15:06;6.32;;;3.35;;
45694;SDS011;31408;45.468;9.124;2023-03-23T17:17:32;7.20;;;3.40;;
45694;SDS011;31408;45.468;9.124;2023-03-23T17:19:57;7.93;;;3.50;;